sensor_id;sensor_type;location;lat;lon;timestamp;P1;durP1;ratioP1;P2;durP2;ratioP2
12635;SDS011;6383;50.830;7.210;2023-01-19T00:01:05;8.73;;;5.95;;
12635;SDS011;6383;50.830;7.210;2023-01-19T00:03:33;10.00;;;6.70;;
12635;SDS011;6383;50.830;7.210;2023-01-19T00:06:03;10.27;;;6.35;;
12635;SDS011;6383;50.830;7.210;2023-01-19T00:08:32;11.15;;;7.18;;
12635;SDS011;6383;50.830;7.210;2023-01-19T00:11:01;8.77;;;6.40;;
12635;SDS011;6383;50.830;7.210;2023-01-19T00:13:31;12.77;;;7.43;;
12635;SDS011;6383;50.830;7.210;2023-01-19T00:16:00;10.80;;;7.80;;
12635;SDS011;6383;50.830;7.210;2023-01-19T00:18:29;10.93;;;7.72;;
12635;SDS011;6383;50.830;7.210;2023-01-19T00:20:57;10.70;;;7.13;;
12635;SDS011;6383;50.830;7.210;2023-01-19T00:23:26;12.45;;;7.25;;
12635;SDS011;6383;50.830;7.210;2023-01-19T00:25:56;9.30;;;6.40;;
12635;SDS011;6383;50.830;7.210;2023-01-19T00:28:25;11.02;;;7.32;;
12635;SDS011;6383;50.830;7.210;2023-01-19T00:30:52;10.00;;;7.65;;
12635;SDS011;6383;50.830;7.210;2023-01-19T00:33:21;12.27;;;8.02;;
12635;SDS011;6383;50.830;7.210;2023-01-19T00:35:50;12.00;;;7.95;;
12635;SDS011;6383;50.830;7.210;2023-01-19T00:38:17;12.88;;;7.32;;
12635;SDS011;6383;50.830;7.210;2023-01-19T00:40:47;12.45;;;7.93;;
12635;SDS011;6383;50.830;7.210;2023-01-19T00:43:16;11.40;;;8.25;;
12635;SDS011;6383;50.830;7.210;2023-01-19T00:45:45;9.52;;;7.22;;
12635;SDS011;6383;50.830;7.210;2023-01-19T00:48:13;15.13;;;7.30;;
12635;SDS011;6383;50.830;7.210;2023-01-19T00:50:42;10.23;;;7.43;;
12635;SDS011;6383;50.830;7.210;2023-01-19T00:53:11;10.68;;;7.05;;
12635;SDS011;6383;50.830;7.210;2023-01-19T00:55:39;15.95;;;8.40;;
12635;SDS011;6383;50.830;7.210;2023-01-19T00:58:08;11.20;;;7.20;;
12635;SDS011;6383;50.830;7.210;2023-01-19T01:00:39;11.68;;;7.80;;
12635;SDS011;6383;50.830;7.210;2023-01-19T01:03:08;11.57;;;7.50;;
12635;SDS011;6383;50.830;7.210;2023-01-19T01:05:39;14.85;;;7.15;;
12635;SDS011;6383;50.830;7.210;2023-01-19T01:08:07;13.25;;;7.60;;
12635;SDS011;6383;50.830;7.210;2023-01-19T01:10:34;10.88;;;7.43;;
12635;SDS011;6383;50.830;7.210;2023-01-19T01:13:01;9.93;;;7.88;;
12635;SDS011;6383;50.830;7.210;2023-01-19T01:15:29;10.07;;;7.95;;
12635;SDS011;6383;50.830;7.210;2023-01-19T01:17:58;11.25;;;8.98;;
12635;SDS011;6383;50.830;7.210;2023-01-19T01:20:26;11.50;;;7.47;;
12635;SDS011;6383;50.830;7.210;2023-01-19T01:22:55;8.80;;;7.82;;
12635;SDS011;6383;50.830;7.210;2023-01-19T01:25:25;12.25;;;8.35;;
12635;SDS011;6383;50.830;7.210;2023-01-19T01:27:56;11.15;;;8.25;;
12635;SDS011;6383;50.830;7.210;2023-01-19T01:30:24;15.25;;;7.93;;
12635;SDS011;6383;50.830;7.210;2023-01-19T01:32:52;14.60;;;8.80;;
12635;SDS011;6383;50.830;7.210;2023-01-19T01:35:22;8.85;;;7.68;;
12635;SDS011;6383;50.830;7.210;2023-01-19T01:37:51;11.73;;;7.53;;
12635;SDS011;6383;50.830;7.210;2023-01-19T01:40:20;12.18;;;8.75;;
12635;SDS011;6383;50.830;7.210;2023-01-19T01:42:49;14.95;;;10.80;;
12635;SDS011;6383;50.830;7.210;2023-01-19T01:45:27;12.75;;;8.40;;
12635;SDS011;6383;50.830;7.210;2023-01-19T01:48:00;14.43;;;7.93;;
12635;SDS011;6383;50.830;7.210;2023-01-19T01:50:34;10.13;;;8.38;;
12635;SDS011;6383;50.830;7.210;2023-01-19T01:53:26;11.48;;;8.40;;
12635;SDS011;6383;50.830;7.210;2023-01-19T01:55:59;13.63;;;7.70;;
12635;SDS011;6383;50.830;7.210;2023-01-19T01:58:32;12.85;;;8.52;;
12635;SDS011;6383;50.830;7.210;2023-01-19T02:01:02;13.18;;;9.48;;
12635;SDS011;6383;50.830;7.210;2023-01-19T02:03:49;10.30;;;8.18;;
12635;SDS011;6383;50.830;7.210;2023-01-19T02:06:19;11.23;;;8.07;;
12635;SDS011;6383;50.830;7.210;2023-01-19T02:08:49;12.02;;;7.57;;
12635;SDS011;6383;50.830;7.210;2023-01-19T02:11:42;10.25;;;7.53;;
12635;SDS011;6383;50.830;7.210;2023-01-19T02:14:28;8.93;;;7.05;;
12635;SDS011;6383;50.830;7.210;2023-01-19T02:16:57;9.68;;;7.00;;
12635;SDS011;6383;50.830;7.210;2023-01-19T02:19:27;9.95;;;7.20;;
12635;SDS011;6383;50.830;7.210;2023-01-19T02:22:03;10.07;;;7.78;;
12635;SDS011;6383;50.830;7.210;2023-01-19T02:24:35;10.73;;;7.32;;
12635;SDS011;6383;50.830;7.210;2023-01-19T02:27:04;8.95;;;7.72;;
12635;SDS011;6383;50.830;7.210;2023-01-19T02:29:34;9.43;;;7.35;;
12635;SDS011;6383;50.830;7.210;2023-01-19T02:32:02;13.85;;;6.72;;
12635;SDS011;6383;50.830;7.210;2023-01-19T02:34:32;8.07;;;6.60;;
12635;SDS011;6383;50.830;7.210;2023-01-19T02:37:02;9.90;;;7.20;;
12635;SDS011;6383;50.830;7.210;2023-01-19T02:39:37;6.60;;;6.00;;
12635;SDS011;6383;50.830;7.210;2023-01-19T02:42:10;10.55;;;6.97;;
12635;SDS011;6383;50.830;7.210;2023-01-19T02:44:44;11.02;;;7.95;;
12635;SDS011;6383;50.830;7.210;2023-01-19T02:47:16;12.35;;;6.68;;
12635;SDS011;6383;50.830;7.210;2023-01-19T02:49:52;8.07;;;6.30;;
12635;SDS011;6383;50.830;7.210;2023-01-19T02:52:22;7.65;;;5.93;;
12635;SDS011;6383;50.830;7.210;2023-01-19T02:54:57;8.30;;;5.85;;
12635;SDS011;6383;50.830;7.210;2023-01-19T02:57:35;8.10;;;6.25;;
12635;SDS011;6383;50.830;7.210;2023-01-19T03:00:17;8.70;;;6.85;;
12635;SDS011;6383;50.830;7.210;2023-01-19T03:03:00;6.95;;;5.63;;
12635;SDS011;6383;50.830;7.210;2023-01-19T03:05:44;12.10;;;5.23;;
12635;SDS011;6383;50.830;7.210;2023-01-19T03:08:25;7.00;;;6.25;;
12635;SDS011;6383;50.830;7.210;2023-01-19T03:11:02;8.25;;;6.22;;
12635;SDS011;6383;50.830;7.210;2023-01-19T03:13:33;7.90;;;5.28;;
12635;SDS011;6383;50.830;7.210;2023-01-19T03:16:13;9.00;;;5.00;;
12635;SDS011;6383;50.830;7.210;2023-01-19T03:18:48;6.93;;;5.78;;
12635;SDS011;6383;50.830;7.210;2023-01-19T03:21:22;7.18;;;6.07;;
12635;SDS011;6383;50.830;7.210;2023-01-19T03:23:56;9.07;;;5.30;;
12635;SDS011;6383;50.830;7.210;2023-01-19T03:26:30;9.02;;;5.18;;
12635;SDS011;6383;50.830;7.210;2023-01-19T03:31:34;9.00;;;5.75;;
12635;SDS011;6383;50.830;7.210;2023-01-19T03:34:05;5.00;;;4.50;;
12635;SDS011;6383;50.830;7.210;2023-01-19T03:36:39;5.15;;;4.65;;
12635;SDS011;6383;50.830;7.210;2023-01-19T03:39:13;7.68;;;5.10;;
12635;SDS011;6383;50.830;7.210;2023-01-19T03:41:47;6.55;;;5.43;;
12635;SDS011;6383;50.830;7.210;2023-01-19T03:44:17;11.25;;;5.32;;
12635;SDS011;6383;50.830;7.210;2023-01-19T03:46:46;6.70;;;4.72;;
12635;SDS011;6383;50.830;7.210;2023-01-19T03:49:16;7.63;;;5.60;;
12635;SDS011;6383;50.830;7.210;2023-01-19T03:51:46;8.30;;;6.18;;
12635;SDS011;6383;50.830;7.210;2023-01-19T03:54:15;6.18;;;5.13;;
12635;SDS011;6383;50.830;7.210;2023-01-19T03:56:44;6.13;;;5.53;;
12635;SDS011;6383;50.830;7.210;2023-01-19T03:59:14;6.70;;;5.00;;
12635;SDS011;6383;50.830;7.210;2023-01-19T04:01:44;9.13;;;6.30;;
12635;SDS011;6383;50.830;7.210;2023-01-19T04:04:13;6.28;;;5.38;;
12635;SDS011;6383;50.830;7.210;2023-01-19T04:06:42;11.18;;;5.63;;
12635;SDS011;6383;50.830;7.210;2023-01-19T04:09:11;7.80;;;5.43;;
12635;SDS011;6383;50.830;7.210;2023-01-19T04:11:41;7.70;;;5.38;;
12635;SDS011;6383;50.830;7.210;2023-01-19T04:14:10;6.82;;;5.15;;
12635;SDS011;6383;50.830;7.210;2023-01-19T04:16:41;6.75;;;5.45;;
12635;SDS011;6383;50.830;7.210;2023-01-19T04:19:10;6.65;;;5.45;;
12635;SDS011;6383;50.830;7.210;2023-01-19T04:21:39;10.10;;;5.50;;
12635;SDS011;6383;50.830;7.210;2023-01-19T04:24:09;9.85;;;5.38;;
12635;SDS011;6383;50.830;7.210;2023-01-19T04:26:38;7.70;;;5.60;;
12635;SDS011;6383;50.830;7.210;2023-01-19T04:29:07;6.72;;;4.85;;
12635;SDS011;6383;50.830;7.210;2023-01-19T04:31:34;6.63;;;4.93;;
12635;SDS011;6383;50.830;7.210;2023-01-19T04:34:04;7.32;;;5.38;;
12635;SDS011;6383;50.830;7.210;2023-01-19T04:36:32;8.27;;;5.20;;
12635;SDS011;6383;50.830;7.210;2023-01-19T04:39:01;7.88;;;5.53;;
12635;SDS011;6383;50.830;7.210;2023-01-19T04:41:31;6.07;;;4.72;;
12635;SDS011;6383;50.830;7.210;2023-01-19T04:44:00;11.40;;;5.80;;
12635;SDS011;6383;50.830;7.210;2023-01-19T04:46:29;8.55;;;4.88;;
12635;SDS011;6383;50.830;7.210;2023-01-19T04:48:58;6.25;;;5.35;;
12635;SDS011;6383;50.830;7.210;2023-01-19T04:51:29;6.30;;;5.05;;
12635;SDS011;6383;50.830;7.210;2023-01-19T04:53:58;7.68;;;4.95;;
12635;SDS011;6383;50.830;7.210;2023-01-19T04:56:28;6.22;;;5.63;;
12635;SDS011;6383;50.830;7.210;2023-01-19T04:58:57;7.50;;;5.47;;
12635;SDS011;6383;50.830;7.210;2023-01-19T05:01:26;7.38;;;5.40;;
12635;SDS011;6383;50.830;7.210;2023-01-19T05:03:57;5.82;;;5.25;;
12635;SDS011;6383;50.830;7.210;2023-01-19T05:06:26;8.55;;;5.75;;
12635;SDS011;6383;50.830;7.210;2023-01-19T05:08:56;6.53;;;5.35;;
12635;SDS011;6383;50.830;7.210;2023-01-19T05:11:25;9.93;;;5.70;;
12635;SDS011;6383;50.830;7.210;2023-01-19T05:13:54;8.32;;;5.63;;
12635;SDS011;6383;50.830;7.210;2023-01-19T05:16:24;10.77;;;5.60;;
12635;SDS011;6383;50.830;7.210;2023-01-19T05:18:53;6.25;;;5.13;;
12635;SDS011;6383;50.830;7.210;2023-01-19T05:21:22;9.13;;;6.07;;
12635;SDS011;6383;50.830;7.210;2023-01-19T05:23:51;8.52;;;4.97;;
12635;SDS011;6383;50.830;7.210;2023-01-19T05:26:21;9.98;;;5.85;;
12635;SDS011;6383;50.830;7.210;2023-01-19T05:28:50;9.85;;;6.43;;
12635;SDS011;6383;50.830;7.210;2023-01-19T05:31:19;7.18;;;5.35;;
12635;SDS011;6383;50.830;7.210;2023-01-19T05:33:48;8.95;;;5.93;;
12635;SDS011;6383;50.830;7.210;2023-01-19T05:36:18;13.35;;;6.25;;
12635;SDS011;6383;50.830;7.210;2023-01-19T05:38:47;8.80;;;5.75;;
12635;SDS011;6383;50.830;7.210;2023-01-19T05:41:16;11.45;;;5.22;;
12635;SDS011;6383;50.830;7.210;2023-01-19T05:43:46;7.72;;;5.40;;
12635;SDS011;6383;50.830;7.210;2023-01-19T05:46:15;12.73;;;6.07;;
12635;SDS011;6383;50.830;7.210;2023-01-19T05:48:44;7.68;;;5.18;;
12635;SDS011;6383;50.830;7.210;2023-01-19T05:51:13;9.10;;;6.13;;
12635;SDS011;6383;50.830;7.210;2023-01-19T05:53:42;9.55;;;5.80;;
12635;SDS011;6383;50.830;7.210;2023-01-19T05:56:11;10.48;;;5.75;;
12635;SDS011;6383;50.830;7.210;2023-01-19T05:58:40;9.02;;;6.25;;
12635;SDS011;6383;50.830;7.210;2023-01-19T06:01:11;12.52;;;7.07;;
12635;SDS011;6383;50.830;7.210;2023-01-19T06:03:40;10.48;;;7.65;;
12635;SDS011;6383;50.830;7.210;2023-01-19T06:06:09;7.85;;;6.75;;
12635;SDS011;6383;50.830;7.210;2023-01-19T06:08:39;9.20;;;7.28;;
12635;SDS011;6383;50.830;7.210;2023-01-19T06:11:08;9.15;;;7.43;;
12635;SDS011;6383;50.830;7.210;2023-01-19T06:13:35;19.15;;;7.93;;
12635;SDS011;6383;50.830;7.210;2023-01-19T06:16:05;11.98;;;7.75;;
12635;SDS011;6383;50.830;7.210;2023-01-19T06:18:34;11.23;;;10.05;;
12635;SDS011;6383;50.830;7.210;2023-01-19T06:21:03;13.98;;;8.45;;
12635;SDS011;6383;50.830;7.210;2023-01-19T06:23:34;12.18;;;8.93;;
12635;SDS011;6383;50.830;7.210;2023-01-19T06:26:03;22.50;;;11.40;;
12635;SDS011;6383;50.830;7.210;2023-01-19T06:28:32;11.80;;;8.32;;
12635;SDS011;6383;50.830;7.210;2023-01-19T06:31:01;15.27;;;9.55;;
12635;SDS011;6383;50.830;7.210;2023-01-19T06:33:31;13.57;;;9.27;;
12635;SDS011;6383;50.830;7.210;2023-01-19T06:36:01;12.98;;;9.38;;
12635;SDS011;6383;50.830;7.210;2023-01-19T06:38:31;17.80;;;10.57;;
12635;SDS011;6383;50.830;7.210;2023-01-19T06:41:00;16.83;;;12.48;;
12635;SDS011;6383;50.830;7.210;2023-01-19T06:43:30;17.33;;;10.52;;
12635;SDS011;6383;50.830;7.210;2023-01-19T06:45:59;16.05;;;10.48;;
12635;SDS011;6383;50.830;7.210;2023-01-19T06:48:28;14.73;;;11.23;;
12635;SDS011;6383;50.830;7.210;2023-01-19T06:50:57;16.60;;;11.35;;
12635;SDS011;6383;50.830;7.210;2023-01-19T06:53:28;13.13;;;10.18;;
12635;SDS011;6383;50.830;7.210;2023-01-19T06:55:57;14.88;;;11.93;;
12635;SDS011;6383;50.830;7.210;2023-01-19T06:58:27;17.17;;;11.70;;
12635;SDS011;6383;50.830;7.210;2023-01-19T07:00:59;18.02;;;11.70;;
12635;SDS011;6383;50.830;7.210;2023-01-19T07:03:28;16.38;;;11.27;;
12635;SDS011;6383;50.830;7.210;2023-01-19T07:05:57;16.20;;;11.18;;
12635;SDS011;6383;50.830;7.210;2023-01-19T07:08:30;16.10;;;12.43;;
12635;SDS011;6383;50.830;7.210;2023-01-19T07:10:59;15.23;;;11.38;;
12635;SDS011;6383;50.830;7.210;2023-01-19T07:13:29;17.60;;;11.82;;
12635;SDS011;6383;50.830;7.210;2023-01-19T07:15:58;15.60;;;11.80;;
12635;SDS011;6383;50.830;7.210;2023-01-19T07:18:27;15.45;;;12.57;;
12635;SDS011;6383;50.830;7.210;2023-01-19T07:20:56;12.63;;;10.35;;
12635;SDS011;6383;50.830;7.210;2023-01-19T07:23:26;14.10;;;10.70;;
12635;SDS011;6383;50.830;7.210;2023-01-19T07:25:58;16.48;;;11.57;;
12635;SDS011;6383;50.830;7.210;2023-01-19T07:28:28;12.95;;;10.65;;
12635;SDS011;6383;50.830;7.210;2023-01-19T07:30:59;16.08;;;11.35;;
12635;SDS011;6383;50.830;7.210;2023-01-19T07:33:28;14.90;;;11.20;;
12635;SDS011;6383;50.830;7.210;2023-01-19T07:35:57;15.20;;;11.13;;
12635;SDS011;6383;50.830;7.210;2023-01-19T07:38:26;14.98;;;10.77;;
12635;SDS011;6383;50.830;7.210;2023-01-19T07:41:00;14.52;;;9.88;;
12635;SDS011;6383;50.830;7.210;2023-01-19T07:43:29;12.73;;;10.20;;
12635;SDS011;6383;50.830;7.210;2023-01-19T07:45:59;13.93;;;11.05;;
12635;SDS011;6383;50.830;7.210;2023-01-19T07:48:29;12.60;;;11.27;;
12635;SDS011;6383;50.830;7.210;2023-01-19T07:50:58;12.35;;;10.50;;
12635;SDS011;6383;50.830;7.210;2023-01-19T07:53:28;12.63;;;10.90;;
12635;SDS011;6383;50.830;7.210;2023-01-19T07:55:57;12.77;;;10.57;;
12635;SDS011;6383;50.830;7.210;2023-01-19T07:58:27;11.80;;;10.57;;
12635;SDS011;6383;50.830;7.210;2023-01-19T08:00:57;18.80;;;11.00;;
12635;SDS011;6383;50.830;7.210;2023-01-19T08:03:26;15.85;;;12.35;;
12635;SDS011;6383;50.830;7.210;2023-01-19T08:05:55;18.00;;;12.07;;
12635;SDS011;6383;50.830;7.210;2023-01-19T08:08:27;15.25;;;11.18;;
12635;SDS011;6383;50.830;7.210;2023-01-19T08:10:57;14.27;;;10.60;;
12635;SDS011;6383;50.830;7.210;2023-01-19T08:13:28;14.85;;;11.10;;
12635;SDS011;6383;50.830;7.210;2023-01-19T08:15:57;14.75;;;11.77;;
12635;SDS011;6383;50.830;7.210;2023-01-19T08:18:26;17.98;;;11.48;;
12635;SDS011;6383;50.830;7.210;2023-01-19T08:20:56;17.02;;;12.68;;
12635;SDS011;6383;50.830;7.210;2023-01-19T08:23:26;13.77;;;12.27;;
12635;SDS011;6383;50.830;7.210;2023-01-19T08:25:55;14.45;;;11.10;;
12635;SDS011;6383;50.830;7.210;2023-01-19T08:28:25;13.73;;;12.27;;
12635;SDS011;6383;50.830;7.210;2023-01-19T08:30:55;20.95;;;13.52;;
12635;SDS011;6383;50.830;7.210;2023-01-19T08:33:25;12.43;;;11.18;;
12635;SDS011;6383;50.830;7.210;2023-01-19T08:35:54;17.08;;;12.82;;
12635;SDS011;6383;50.830;7.210;2023-01-19T08:38:23;18.50;;;12.35;;
12635;SDS011;6383;50.830;7.210;2023-01-19T08:40:52;17.77;;;11.93;;
12635;SDS011;6383;50.830;7.210;2023-01-19T08:43:21;14.15;;;12.43;;
12635;SDS011;6383;50.830;7.210;2023-01-19T08:45:51;20.52;;;15.70;;
12635;SDS011;6383;50.830;7.210;2023-01-19T08:48:24;15.82;;;12.07;;
12635;SDS011;6383;50.830;7.210;2023-01-19T08:50:53;15.88;;;12.95;;
12635;SDS011;6383;50.830;7.210;2023-01-19T08:53:22;19.10;;;12.02;;
12635;SDS011;6383;50.830;7.210;2023-01-19T08:55:53;18.73;;;14.15;;
12635;SDS011;6383;50.830;7.210;2023-01-19T08:58:23;15.82;;;11.77;;
12635;SDS011;6383;50.830;7.210;2023-01-19T09:00:53;20.85;;;13.23;;
12635;SDS011;6383;50.830;7.210;2023-01-19T09:03:23;17.17;;;13.68;;
12635;SDS011;6383;50.830;7.210;2023-01-19T09:05:52;21.85;;;14.63;;
12635;SDS011;6383;50.830;7.210;2023-01-19T09:08:21;18.65;;;13.57;;
12635;SDS011;6383;50.830;7.210;2023-01-19T09:10:50;24.00;;;14.10;;
12635;SDS011;6383;50.830;7.210;2023-01-19T09:13:20;23.67;;;15.32;;
12635;SDS011;6383;50.830;7.210;2023-01-19T09:15:49;19.13;;;12.93;;
12635;SDS011;6383;50.830;7.210;2023-01-19T09:18:19;20.95;;;12.95;;
12635;SDS011;6383;50.830;7.210;2023-01-19T09:20:50;16.42;;;11.52;;
12635;SDS011;6383;50.830;7.210;2023-01-19T09:23:21;18.70;;;11.32;;
12635;SDS011;6383;50.830;7.210;2023-01-19T09:25:54;20.58;;;12.10;;
12635;SDS011;6383;50.830;7.210;2023-01-19T09:28:24;18.42;;;12.13;;
12635;SDS011;6383;50.830;7.210;2023-01-19T09:30:54;15.15;;;12.05;;
12635;SDS011;6383;50.830;7.210;2023-01-19T09:33:24;22.33;;;12.02;;
12635;SDS011;6383;50.830;7.210;2023-01-19T09:35:54;29.98;;;19.13;;
12635;SDS011;6383;50.830;7.210;2023-01-19T09:38:24;24.38;;;21.65;;
12635;SDS011;6383;50.830;7.210;2023-01-19T09:40:54;54.67;;;41.28;;
12635;SDS011;6383;50.830;7.210;2023-01-19T09:43:29;77.90;;;63.10;;
12635;SDS011;6383;50.830;7.210;2023-01-19T09:46:04;34.22;;;27.30;;
12635;SDS011;6383;50.830;7.210;2023-01-19T09:48:40;25.55;;;16.80;;
12635;SDS011;6383;50.830;7.210;2023-01-19T09:51:14;21.08;;;13.23;;
12635;SDS011;6383;50.830;7.210;2023-01-19T09:53:48;15.80;;;12.65;;
12635;SDS011;6383;50.830;7.210;2023-01-19T09:56:22;19.30;;;11.82;;
12635;SDS011;6383;50.830;7.210;2023-01-19T09:58:51;23.33;;;12.85;;
12635;SDS011;6383;50.830;7.210;2023-01-19T10:01:31;18.58;;;11.32;;
12635;SDS011;6383;50.830;7.210;2023-01-19T10:07:04;20.85;;;11.43;;
12635;SDS011;6383;50.830;7.210;2023-01-19T10:09:39;23.33;;;11.70;;
12635;SDS011;6383;50.830;7.210;2023-01-19T10:12:20;17.05;;;11.05;;
12635;SDS011;6383;50.830;7.210;2023-01-19T10:15:02;15.35;;;11.52;;
12635;SDS011;6383;50.830;7.210;2023-01-19T10:17:42;17.85;;;11.75;;
12635;SDS011;6383;50.830;7.210;2023-01-19T10:20:22;18.05;;;10.93;;
12635;SDS011;6383;50.830;7.210;2023-01-19T10:22:56;24.33;;;12.80;;
12635;SDS011;6383;50.830;7.210;2023-01-19T10:25:27;19.67;;;12.45;;
12635;SDS011;6383;50.830;7.210;2023-01-19T10:27:58;22.20;;;11.60;;
12635;SDS011;6383;50.830;7.210;2023-01-19T10:30:28;20.25;;;11.40;;
12635;SDS011;6383;50.830;7.210;2023-01-19T10:32:57;23.75;;;12.15;;
12635;SDS011;6383;50.830;7.210;2023-01-19T10:35:27;24.40;;;12.07;;
12635;SDS011;6383;50.830;7.210;2023-01-19T10:37:59;27.48;;;13.00;;
12635;SDS011;6383;50.830;7.210;2023-01-19T10:40:30;21.33;;;12.30;;
12635;SDS011;6383;50.830;7.210;2023-01-19T10:46:04;39.30;;;24.02;;
12635;SDS011;6383;50.830;7.210;2023-01-19T10:48:35;27.48;;;16.83;;
12635;SDS011;6383;50.830;7.210;2023-01-19T10:51:06;32.15;;;21.60;;
12635;SDS011;6383;50.830;7.210;2023-01-19T10:53:37;26.67;;;13.82;;
12635;SDS011;6383;50.830;7.210;2023-01-19T10:56:11;25.10;;;14.18;;
12635;SDS011;6383;50.830;7.210;2023-01-19T10:58:43;29.58;;;14.25;;
12635;SDS011;6383;50.830;7.210;2023-01-19T11:01:13;22.38;;;12.88;;
12635;SDS011;6383;50.830;7.210;2023-01-19T11:03:44;26.73;;;14.00;;
12635;SDS011;6383;50.830;7.210;2023-01-19T11:06:26;25.67;;;14.57;;
12635;SDS011;6383;50.830;7.210;2023-01-19T11:09:16;26.02;;;13.27;;
12635;SDS011;6383;50.830;7.210;2023-01-19T11:11:47;20.67;;;13.30;;
12635;SDS011;6383;50.830;7.210;2023-01-19T11:14:18;25.25;;;15.55;;
12635;SDS011;6383;50.830;7.210;2023-01-19T11:16:50;23.80;;;13.93;;
12635;SDS011;6383;50.830;7.210;2023-01-19T11:19:25;25.20;;;14.38;;
12635;SDS011;6383;50.830;7.210;2023-01-19T11:22:09;21.88;;;14.30;;
12635;SDS011;6383;50.830;7.210;2023-01-19T11:24:49;23.90;;;14.20;;
12635;SDS011;6383;50.830;7.210;2023-01-19T11:27:18;24.15;;;13.75;;
12635;SDS011;6383;50.830;7.210;2023-01-19T11:29:49;23.60;;;14.45;;
12635;SDS011;6383;50.830;7.210;2023-01-19T11:32:27;26.30;;;14.85;;
12635;SDS011;6383;50.830;7.210;2023-01-19T11:34:59;27.52;;;14.68;;
12635;SDS011;6383;50.830;7.210;2023-01-19T11:37:29;22.92;;;15.00;;
12635;SDS011;6383;50.830;7.210;2023-01-19T11:40:02;29.13;;;14.52;;
12635;SDS011;6383;50.830;7.210;2023-01-19T11:42:34;25.30;;;13.88;;
12635;SDS011;6383;50.830;7.210;2023-01-19T11:45:05;27.13;;;14.35;;
12635;SDS011;6383;50.830;7.210;2023-01-19T11:47:40;25.63;;;14.68;;
12635;SDS011;6383;50.830;7.210;2023-01-19T11:50:12;31.50;;;14.07;;
12635;SDS011;6383;50.830;7.210;2023-01-19T11:52:50;31.52;;;14.07;;
12635;SDS011;6383;50.830;7.210;2023-01-19T11:55:30;27.77;;;13.05;;
12635;SDS011;6383;50.830;7.210;2023-01-19T11:58:04;27.33;;;13.07;;
12635;SDS011;6383;50.830;7.210;2023-01-19T12:00:34;41.45;;;14.50;;
12635;SDS011;6383;50.830;7.210;2023-01-19T12:03:07;34.33;;;15.93;;
12635;SDS011;6383;50.830;7.210;2023-01-19T12:05:41;37.22;;;15.90;;
12635;SDS011;6383;50.830;7.210;2023-01-19T12:08:14;26.50;;;13.93;;
12635;SDS011;6383;50.830;7.210;2023-01-19T12:10:48;26.42;;;14.85;;
12635;SDS011;6383;50.830;7.210;2023-01-19T12:13:20;30.02;;;14.30;;
12635;SDS011;6383;50.830;7.210;2023-01-19T12:15:52;36.97;;;14.90;;
12635;SDS011;6383;50.830;7.210;2023-01-19T12:18:27;29.23;;;15.23;;
12635;SDS011;6383;50.830;7.210;2023-01-19T12:21:00;29.48;;;14.77;;
12635;SDS011;6383;50.830;7.210;2023-01-19T12:23:47;26.73;;;14.18;;
12635;SDS011;6383;50.830;7.210;2023-01-19T12:26:27;28.03;;;15.37;;
12635;SDS011;6383;50.830;7.210;2023-01-19T12:28:59;35.47;;;13.07;;
12635;SDS011;6383;50.830;7.210;2023-01-19T12:31:33;33.58;;;17.80;;
12635;SDS011;6383;50.830;7.210;2023-01-19T12:34:26;37.50;;;18.13;;
12635;SDS011;6383;50.830;7.210;2023-01-19T12:37:00;28.88;;;17.80;;
12635;SDS011;6383;50.830;7.210;2023-01-19T12:39:31;28.83;;;16.52;;
12635;SDS011;6383;50.830;7.210;2023-01-19T12:42:04;28.48;;;16.08;;
12635;SDS011;6383;50.830;7.210;2023-01-19T12:44:39;27.63;;;14.30;;
12635;SDS011;6383;50.830;7.210;2023-01-19T12:47:17;27.33;;;14.65;;
12635;SDS011;6383;50.830;7.210;2023-01-19T12:49:49;25.27;;;12.65;;
12635;SDS011;6383;50.830;7.210;2023-01-19T12:52:21;28.75;;;13.20;;
12635;SDS011;6383;50.830;7.210;2023-01-19T12:55:05;21.02;;;13.48;;
12635;SDS011;6383;50.830;7.210;2023-01-19T12:57:48;32.97;;;13.38;;
12635;SDS011;6383;50.830;7.210;2023-01-19T13:00:31;22.02;;;11.43;;
12635;SDS011;6383;50.830;7.210;2023-01-19T13:06:18;25.63;;;11.95;;
12635;SDS011;6383;50.830;7.210;2023-01-19T13:08:54;17.73;;;10.38;;
12635;SDS011;6383;50.830;7.210;2023-01-19T13:11:24;24.73;;;11.32;;
12635;SDS011;6383;50.830;7.210;2023-01-19T13:17:05;34.65;;;11.63;;
12635;SDS011;6383;50.830;7.210;2023-01-19T13:19:51;20.30;;;10.90;;
12635;SDS011;6383;50.830;7.210;2023-01-19T13:25:45;25.88;;;12.15;;
12635;SDS011;6383;50.830;7.210;2023-01-19T13:28:18;25.02;;;12.52;;
12635;SDS011;6383;50.830;7.210;2023-01-19T13:30:59;24.98;;;10.40;;
12635;SDS011;6383;50.830;7.210;2023-01-19T13:33:36;24.00;;;10.00;;
12635;SDS011;6383;50.830;7.210;2023-01-19T13:36:25;21.75;;;9.60;;
12635;SDS011;6383;50.830;7.210;2023-01-19T13:38:59;25.27;;;11.23;;
12635;SDS011;6383;50.830;7.210;2023-01-19T13:41:34;18.83;;;10.88;;
12635;SDS011;6383;50.830;7.210;2023-01-19T13:44:08;18.25;;;9.75;;
12635;SDS011;6383;50.830;7.210;2023-01-19T13:46:41;16.27;;;9.73;;
12635;SDS011;6383;50.830;7.210;2023-01-19T13:49:14;21.20;;;9.40;;
12635;SDS011;6383;50.830;7.210;2023-01-19T13:52:02;20.88;;;10.40;;
12635;SDS011;6383;50.830;7.210;2023-01-19T13:54:32;26.45;;;11.02;;
12635;SDS011;6383;50.830;7.210;2023-01-19T13:57:01;22.10;;;10.45;;
12635;SDS011;6383;50.830;7.210;2023-01-19T13:59:30;16.67;;;10.18;;
12635;SDS011;6383;50.830;7.210;2023-01-19T14:02:02;19.27;;;9.77;;
12635;SDS011;6383;50.830;7.210;2023-01-19T14:04:41;21.70;;;9.90;;
12635;SDS011;6383;50.830;7.210;2023-01-19T14:07:12;24.88;;;11.77;;
12635;SDS011;6383;50.830;7.210;2023-01-19T14:10:01;20.48;;;10.07;;
12635;SDS011;6383;50.830;7.210;2023-01-19T14:12:31;28.80;;;9.20;;
12635;SDS011;6383;50.830;7.210;2023-01-19T14:15:00;23.30;;;9.30;;
12635;SDS011;6383;50.830;7.210;2023-01-19T14:17:31;14.52;;;9.63;;
12635;SDS011;6383;50.830;7.210;2023-01-19T14:20:02;21.77;;;9.27;;
12635;SDS011;6383;50.830;7.210;2023-01-19T14:22:38;17.17;;;8.73;;
12635;SDS011;6383;50.830;7.210;2023-01-19T14:25:28;23.92;;;9.55;;
12635;SDS011;6383;50.830;7.210;2023-01-19T14:30:54;24.05;;;8.95;;
12635;SDS011;6383;50.830;7.210;2023-01-19T14:33:34;30.92;;;10.20;;
12635;SDS011;6383;50.830;7.210;2023-01-19T14:36:09;20.95;;;8.20;;
12635;SDS011;6383;50.830;7.210;2023-01-19T14:38:49;21.20;;;7.50;;
12635;SDS011;6383;50.830;7.210;2023-01-19T14:41:24;22.70;;;8.18;;
12635;SDS011;6383;50.830;7.210;2023-01-19T14:43:57;15.63;;;8.10;;
12635;SDS011;6383;50.830;7.210;2023-01-19T14:46:27;19.50;;;8.18;;
12635;SDS011;6383;50.830;7.210;2023-01-19T14:48:58;14.80;;;7.75;;
12635;SDS011;6383;50.830;7.210;2023-01-19T14:51:31;22.15;;;8.48;;
12635;SDS011;6383;50.830;7.210;2023-01-19T14:54:00;20.58;;;8.90;;
12635;SDS011;6383;50.830;7.210;2023-01-19T14:56:31;21.52;;;10.15;;
12635;SDS011;6383;50.830;7.210;2023-01-19T14:59:04;18.52;;;9.93;;
12635;SDS011;6383;50.830;7.210;2023-01-19T15:01:35;22.52;;;10.90;;
12635;SDS011;6383;50.830;7.210;2023-01-19T15:04:04;16.50;;;9.27;;
12635;SDS011;6383;50.830;7.210;2023-01-19T15:06:35;21.95;;;8.80;;
12635;SDS011;6383;50.830;7.210;2023-01-19T15:09:07;21.67;;;9.27;;
12635;SDS011;6383;50.830;7.210;2023-01-19T15:11:35;18.15;;;8.55;;
12635;SDS011;6383;50.830;7.210;2023-01-19T15:14:04;17.45;;;8.20;;
12635;SDS011;6383;50.830;7.210;2023-01-19T15:16:34;14.15;;;8.60;;
12635;SDS011;6383;50.830;7.210;2023-01-19T15:19:04;16.13;;;8.50;;
12635;SDS011;6383;50.830;7.210;2023-01-19T15:21:34;23.08;;;8.73;;
12635;SDS011;6383;50.830;7.210;2023-01-19T15:24:04;15.48;;;7.40;;
12635;SDS011;6383;50.830;7.210;2023-01-19T15:26:34;18.30;;;8.15;;
12635;SDS011;6383;50.830;7.210;2023-01-19T15:29:09;20.90;;;7.22;;
12635;SDS011;6383;50.830;7.210;2023-01-19T15:31:44;12.68;;;7.32;;
12635;SDS011;6383;50.830;7.210;2023-01-19T15:34:13;16.85;;;7.30;;